Sandy Fork, Texas
Current Conditions -  °F | °C
As of 8:20 AM on Thursday 29 Jan 2015 (Local Time) from KHYI Reporting Station
Haze Haze  
Wind Chill: 57°   Ceiling: 300
Heat Index: 57°   Visibility: 1.5mi
Dew Point: 55°   Wind: 7mph
Humidity: 94%   Direction: 210°SSW
Pressure: 30.21"   Gusts: NA
Location:  29.6608°N, 97.4854°W
Report Text: KHYI 291420Z 21006KT 1 1/2SM BR OVC003 14/13 A3021
Loading
Personal Weather Stations






























Interactive Weather Map New forecast layout! Learn more

10-Day Weather Forecast

Advertisements
Track Severe Weather on mobile